createdAt,value
2023-02-18T00:02:13.702Z,19.50
2023-02-18T00:04:42.128Z,17.53
2023-02-18T00:07:10.862Z,18.27
2023-02-18T00:09:39.746Z,19.60
2023-02-18T00:12:08.438Z,21.20
2023-02-18T00:14:36.657Z,20.93
2023-02-18T00:17:05.539Z,20.57
2023-02-18T00:19:34.283Z,19.00
2023-02-18T00:22:02.362Z,19.77
2023-02-18T00:24:30.744Z,19.27
2023-02-18T00:26:59.202Z,20.07
2023-02-18T00:29:27.942Z,18.37
2023-02-18T00:31:57.872Z,18.90
2023-02-18T00:34:26.599Z,18.00
2023-02-18T00:36:57.322Z,17.37
2023-02-18T00:39:25.694Z,18.73
2023-02-18T00:41:58.559Z,19.20
2023-02-18T00:44:27.834Z,19.20
2023-02-18T00:46:56.003Z,18.37
2023-02-18T00:49:24.347Z,20.93
2023-02-18T00:51:52.394Z,20.67
2023-02-18T00:54:20.708Z,20.33
2023-02-18T00:56:48.865Z,21.23
2023-02-18T00:59:17.478Z,16.77
2023-02-18T01:01:46.365Z,18.87
2023-02-18T01:04:16.994Z,19.00
2023-02-18T01:06:45.312Z,21.17
2023-02-18T01:09:13.418Z,20.47
2023-02-18T01:11:41.605Z,19.60
2023-02-18T01:14:09.737Z,20.10
2023-02-18T01:16:38.630Z,20.23
2023-02-18T01:19:07.068Z,22.10
2023-02-18T01:21:35.115Z,22.33
2023-02-18T01:24:03.809Z,19.73
2023-02-18T01:26:32.035Z,20.33
2023-02-18T01:29:00.198Z,20.47
2023-02-18T01:31:28.738Z,21.97
2023-02-18T01:33:56.811Z,20.60
2023-02-18T01:36:25.085Z,19.70
2023-02-18T01:38:54.114Z,20.53
2023-02-18T01:41:22.632Z,22.30
2023-02-18T01:44:11.398Z,20.73
2023-02-18T01:46:39.577Z,20.30
2023-02-18T01:49:07.583Z,20.03
2023-02-18T01:51:48.182Z,18.80
2023-02-18T01:54:43.914Z,21.57
2023-02-18T01:57:15.871Z,20.47
2023-02-18T01:59:53.995Z,19.47
2023-02-18T02:02:26.464Z,19.90
2023-02-18T02:04:54.976Z,19.30
2023-02-18T02:07:24.707Z,20.93
2023-02-18T02:09:54.361Z,22.87
2023-02-18T02:12:51.885Z,20.43
2023-02-18T02:15:52.291Z,21.23
2023-02-18T02:18:42.778Z,19.27
2023-02-18T02:21:44.917Z,19.93
2023-02-18T02:24:54.099Z,20.97
2023-02-18T02:27:27.115Z,20.17
2023-02-18T02:30:12.781Z,22.13
2023-02-18T02:32:47.274Z,21.97
2023-02-18T02:35:45.345Z,22.33
2023-02-18T02:38:21.029Z,21.13
2023-02-18T02:40:52.199Z,21.10
2023-02-18T02:43:38.767Z,21.70
2023-02-18T02:46:22.816Z,21.83
2023-02-18T02:49:19.592Z,19.80
2023-02-18T02:52:01.239Z,22.63
2023-02-18T02:54:29.752Z,21.43
2023-02-18T02:57:29.778Z,21.13
2023-02-18T03:00:02.532Z,21.70
2023-02-18T03:02:40.148Z,22.47
2023-02-18T03:05:54.477Z,22.77
2023-02-18T03:08:25.390Z,22.43
2023-02-18T03:11:05.474Z,22.27
2023-02-18T03:13:54.761Z,23.13
2023-02-18T03:16:38.192Z,23.17
2023-02-18T03:19:27.295Z,23.03
2023-02-18T03:22:03.741Z,24.13
2023-02-18T03:24:40.668Z,23.13
2023-02-18T03:27:22.357Z,23.50
2023-02-18T03:29:57.989Z,24.00
2023-02-18T03:32:27.895Z,22.07
2023-02-18T03:35:01.022Z,21.90
2023-02-18T03:37:31.797Z,21.47
2023-02-18T03:40:01.861Z,23.83
2023-02-18T03:42:37.048Z,23.03
2023-02-18T03:45:09.940Z,22.77
2023-02-18T03:47:38.525Z,23.40
2023-02-18T03:50:07.724Z,23.83
2023-02-18T03:52:37.170Z,20.90
2023-02-18T03:55:06.045Z,24.53
2023-02-18T03:57:34.579Z,23.47
2023-02-18T04:00:02.986Z,22.87
2023-02-18T04:02:32.284Z,22.90
2023-02-18T04:05:02.072Z,21.97
2023-02-18T04:07:31.989Z,23.97
2023-02-18T04:10:05.163Z,23.70
2023-02-18T04:12:33.866Z,24.53
2023-02-18T04:15:02.595Z,23.60
2023-02-18T04:17:31.492Z,23.27
2023-02-18T04:20:00.303Z,24.97
2023-02-18T04:22:28.367Z,24.93
2023-02-18T04:24:56.890Z,25.40
2023-02-18T04:27:27.484Z,23.33
2023-02-18T04:29:56.044Z,24.63
2023-02-18T04:32:24.559Z,24.07
2023-02-18T04:34:53.089Z,26.10
2023-02-18T04:37:22.723Z,23.67
2023-02-18T04:39:51.187Z,22.70
2023-02-18T04:42:20.072Z,24.20
2023-02-18T04:44:48.623Z,22.23
2023-02-18T04:47:16.734Z,24.20
2023-02-18T04:49:45.034Z,23.97
2023-02-18T04:52:13.076Z,25.37
2023-02-18T04:54:41.566Z,25.23
2023-02-18T04:57:10.991Z,23.50
2023-02-18T04:59:45.063Z,24.63
2023-02-18T05:02:13.620Z,25.73
2023-02-18T05:04:43.131Z,24.00
2023-02-18T05:07:11.270Z,25.97
2023-02-18T05:09:39.561Z,26.10
2023-02-18T05:12:08.160Z,25.40
2023-02-18T05:14:36.488Z,27.93
2023-02-18T05:17:06.844Z,26.70
2023-02-18T05:19:37.994Z,25.97
2023-02-18T05:22:16.634Z,30.07
2023-02-18T05:24:44.747Z,31.93
2023-02-18T05:27:13.026Z,29.53
2023-02-18T05:29:42.960Z,28.20
2023-02-18T05:32:11.162Z,26.13
2023-02-18T05:34:56.786Z,30.57
2023-02-18T05:37:28.581Z,28.93
2023-02-18T05:39:56.438Z,27.23
2023-02-18T05:42:27.588Z,30.20
2023-02-18T05:44:55.936Z,28.30
2023-02-18T05:47:24.268Z,26.33
2023-02-18T05:49:56.547Z,25.87
2023-02-18T05:52:25.030Z,28.27
2023-02-18T05:54:53.213Z,28.67
2023-02-18T05:57:22.124Z,26.53
2023-02-18T05:59:50.834Z,26.87
2023-02-18T06:02:19.679Z,26.97
2023-02-18T06:04:47.848Z,26.37
2023-02-18T06:07:15.976Z,25.93
2023-02-18T06:09:44.980Z,25.77
2023-02-18T06:12:13.359Z,26.00
2023-02-18T06:14:42.704Z,25.07
2023-02-18T06:17:12.676Z,27.93
2023-02-18T06:19:41.457Z,26.20
2023-02-18T06:22:09.758Z,26.43
2023-02-18T06:24:38.363Z,26.40
2023-02-18T06:27:09.598Z,25.40
2023-02-18T06:29:38.416Z,23.53
2023-02-18T06:32:09.763Z,24.70
2023-02-18T06:34:40.411Z,26.13
2023-02-18T06:37:08.630Z,23.63
2023-02-18T06:39:42.645Z,22.17
2023-02-18T06:42:10.673Z,20.87
2023-02-18T06:45:01.511Z,20.80
2023-02-18T06:47:30.139Z,18.07
2023-02-18T06:49:58.104Z,16.77
2023-02-18T06:52:26.260Z,16.07
2023-02-18T06:54:54.566Z,16.40
2023-02-18T06:57:25.568Z,14.63
2023-02-18T06:59:53.906Z,15.30
2023-02-18T07:02:22.154Z,17.97
2023-02-18T07:04:50.721Z,13.10
2023-02-18T07:07:19.288Z,12.87
2023-02-18T07:09:47.564Z,11.37
2023-02-18T07:12:19.699Z,11.50
2023-02-18T07:14:49.888Z,10.50
2023-02-18T07:17:20.453Z,10.63
2023-02-18T07:19:48.432Z,10.77
2023-02-18T07:22:16.415Z,10.00
2023-02-18T07:24:44.967Z,9.40
2023-02-18T07:27:13.269Z,9.13
2023-02-18T07:29:41.523Z,9.40
2023-02-18T07:32:12.458Z,10.77
2023-02-18T07:34:40.969Z,9.47
2023-02-18T07:37:12.918Z,8.87
2023-02-18T07:39:44.014Z,9.30
2023-02-18T07:42:14.529Z,9.60
2023-02-18T07:44:43.214Z,11.27
2023-02-18T07:47:14.673Z,11.67
2023-02-18T07:49:43.574Z,11.07
2023-02-18T07:52:11.673Z,11.53
2023-02-18T07:54:40.321Z,10.20
2023-02-18T07:57:12.124Z,9.73
2023-02-18T07:59:43.372Z,10.20
2023-02-18T08:02:22.924Z,9.97
2023-02-18T08:04:51.346Z,20.30
2023-02-18T08:07:21.729Z,13.10
2023-02-18T08:09:51.190Z,11.47
2023-02-18T08:12:19.612Z,12.20
2023-02-18T08:14:47.860Z,11.60
2023-02-18T08:17:21.978Z,11.70
2023-02-18T08:19:50.544Z,12.47
2023-02-18T08:22:19.404Z,11.87
2023-02-18T08:24:47.624Z,11.83
